createdAt,value
2022-12-28T05:02:51.500Z,100.00
2022-12-28T05:07:03.023Z,100.00
2022-12-28T05:11:22.487Z,100.00
2022-12-28T05:15:33.923Z,100.00
2022-12-28T05:19:45.367Z,100.00
2022-12-28T05:23:57.523Z,100.00
2022-12-28T05:28:08.961Z,100.00
2022-12-28T05:32:20.403Z,100.00
2022-12-28T05:36:33.666Z,100.00
2022-12-28T05:40:45.089Z,100.00
2022-12-28T05:44:56.584Z,100.00
2022-12-28T05:49:09.318Z,100.00
2022-12-28T05:53:20.762Z,100.00
2022-12-28T05:57:32.228Z,99.75
2022-12-28T06:01:44.240Z,99.63
2022-12-28T06:05:55.821Z,99.92
2022-12-28T06:10:08.892Z,99.38
2022-12-28T06:14:20.463Z,99.30
2022-12-28T06:18:31.914Z,99.63
2022-12-28T06:22:43.336Z,99.86
2022-12-28T06:26:54.911Z,99.33
2022-12-28T06:31:10.440Z,99.17
2022-12-28T06:35:21.937Z,99.01
2022-12-28T06:39:33.403Z,99.00
2022-12-28T06:43:45.498Z,98.56
2022-12-28T06:47:56.915Z,98.97
2022-12-28T06:52:08.442Z,98.50
2022-12-28T06:56:30.954Z,98.80
2022-12-28T07:00:42.468Z,98.77
2022-12-28T07:04:53.948Z,98.67
2022-12-28T07:09:08.751Z,98.15
2022-12-28T07:13:24.513Z,98.88
2022-12-28T07:17:39.502Z,98.44
2022-12-28T07:21:50.935Z,98.54
2022-12-28T07:26:10.420Z,98.47
2022-12-28T07:30:21.954Z,98.04
2022-12-28T07:34:33.432Z,98.17
2022-12-28T07:38:45.595Z,97.90
2022-12-28T07:43:00.178Z,97.65
2022-12-28T07:47:11.693Z,97.36
2022-12-28T07:51:29.341Z,97.86
2022-12-28T07:55:40.881Z,97.89
2022-12-28T07:59:52.397Z,97.81
2022-12-28T08:04:07.021Z,96.87
2022-12-28T08:08:18.508Z,96.96
2022-12-28T08:12:30.010Z,96.97
2022-12-28T08:16:44.276Z,96.72
2022-12-28T08:21:01.142Z,96.04
2022-12-28T08:25:13.097Z,96.60
2022-12-28T08:29:24.673Z,96.26
2022-12-28T08:33:36.295Z,96.33
2022-12-28T08:37:47.807Z,96.33
2022-12-28T08:41:59.266Z,95.52
2022-12-28T08:46:19.684Z,95.36
2022-12-28T08:50:33.120Z,95.68
2022-12-28T08:54:44.680Z,95.97
2022-12-28T08:58:57.282Z,95.92
2022-12-28T09:03:08.945Z,95.56
2022-12-28T09:07:20.559Z,95.30
2022-12-28T09:11:32.421Z,94.75
2022-12-28T09:15:43.961Z,93.46
2022-12-28T09:19:55.504Z,92.71
2022-12-28T09:24:08.079Z,91.91
2022-12-28T09:28:19.609Z,90.83
2022-12-28T09:32:31.170Z,90.80
2022-12-28T09:36:44.181Z,90.85
2022-12-28T09:40:55.699Z,90.35
2022-12-28T09:45:12.218Z,90.59
2022-12-28T09:49:32.958Z,90.10
2022-12-28T09:53:44.654Z,89.95
2022-12-28T09:57:58.970Z,89.47
2022-12-28T10:02:33.664Z,89.65
2022-12-28T10:06:45.352Z,89.31
2022-12-28T10:11:01.091Z,88.93
2022-12-28T10:15:14.648Z,88.76
2022-12-28T10:19:28.078Z,88.93
2022-12-28T10:23:56.584Z,89.02
2022-12-28T10:28:13.036Z,88.81
2022-12-28T10:32:24.536Z,89.47
2022-12-28T10:36:36.112Z,89.89
2022-12-28T10:41:03.034Z,89.32
2022-12-28T10:45:21.851Z,89.86
2022-12-28T10:49:38.530Z,89.98
2022-12-28T10:53:57.452Z,89.76
2022-12-28T10:58:35.248Z,89.42
2022-12-28T11:02:46.987Z,89.36
2022-12-28T11:07:01.630Z,88.55
2022-12-28T11:11:20.084Z,86.86
2022-12-28T11:15:32.969Z,85.72
2022-12-28T11:19:45.043Z,84.93
2022-12-28T11:23:56.625Z,85.01
2022-12-28T11:28:18.043Z,84.88
2022-12-28T11:32:35.814Z,85.29
2022-12-28T11:36:48.125Z,84.98
2022-12-28T11:40:59.628Z,85.16
2022-12-28T11:45:36.257Z,84.55
2022-12-28T11:49:48.700Z,84.52
2022-12-28T11:54:01.361Z,84.68
2022-12-28T11:58:35.161Z,84.21
2022-12-28T12:03:00.974Z,84.23
2022-12-28T12:07:19.607Z,84.04
2022-12-28T12:11:42.899Z,84.01
2022-12-28T12:16:00.001Z,83.58
2022-12-28T12:20:26.676Z,83.19
2022-12-28T12:25:01.157Z,82.79
2022-12-28T12:29:18.378Z,82.31
2022-12-28T12:33:34.715Z,82.53
2022-12-28T12:38:03.181Z,82.13
2022-12-28T12:42:53.740Z,81.73
2022-12-28T12:47:17.419Z,82.00
2022-12-28T12:51:37.900Z,82.33
2022-12-28T12:56:23.062Z,81.87
2022-12-28T13:01:05.585Z,82.20
2022-12-28T13:05:23.237Z,81.92
2022-12-28T13:09:36.171Z,81.43
2022-12-28T13:13:50.613Z,81.06
2022-12-28T13:22:42.414Z,80.68
2022-12-28T13:26:55.975Z,80.53
2022-12-28T13:31:23.343Z,80.89
2022-12-28T13:35:34.916Z,80.62
2022-12-28T13:39:47.865Z,80.44
2022-12-28T13:44:18.166Z,80.68
2022-12-28T13:48:31.854Z,81.07
2022-12-28T13:52:50.231Z,81.56
2022-12-28T13:57:20.926Z,81.30
2022-12-28T14:01:40.837Z,81.15
2022-12-28T14:05:56.941Z,80.84
2022-12-28T14:10:10.608Z,81.37
2022-12-28T14:14:22.155Z,81.69
2022-12-28T14:18:34.200Z,81.23
2022-12-28T14:22:45.733Z,81.16
2022-12-28T14:26:58.335Z,81.44
2022-12-28T14:31:12.029Z,82.17
2022-12-28T14:35:26.349Z,81.53
2022-12-28T14:39:44.662Z,81.96
2022-12-28T14:44:02.010Z,81.65
2022-12-28T14:48:35.361Z,81.68
2022-12-28T14:52:50.769Z,82.01
2022-12-28T14:57:14.869Z,81.79
2022-12-28T15:01:44.428Z,82.06
2022-12-28T15:05:59.961Z,81.86
2022-12-28T15:10:11.552Z,81.64
2022-12-28T15:14:23.391Z,81.58
2022-12-28T15:18:34.960Z,81.76
2022-12-28T15:22:49.343Z,81.33
2022-12-28T15:27:02.713Z,81.15
2022-12-28T15:31:18.224Z,81.34
2022-12-28T15:35:29.876Z,81.29
2022-12-28T15:39:41.372Z,81.27
2022-12-28T15:43:52.874Z,81.66
2022-12-28T15:48:05.147Z,81.28
2022-12-28T15:52:16.794Z,81.91
2022-12-28T15:56:30.787Z,82.07
2022-12-28T16:00:47.298Z,81.17
2022-12-28T16:04:59.227Z,81.55
2022-12-28T16:09:11.193Z,82.05
2022-12-28T16:13:22.699Z,81.88
2022-12-28T16:17:36.884Z,82.00
2022-12-28T16:21:53.391Z,81.32
2022-12-28T16:26:05.952Z,81.85
2022-12-28T16:30:17.678Z,82.04
2022-12-28T16:34:29.709Z,82.25
2022-12-28T16:38:41.559Z,82.04
2022-12-28T16:42:53.141Z,81.72
2022-12-28T16:47:06.751Z,81.82
2022-12-28T16:51:18.890Z,82.48
2022-12-28T16:55:33.039Z,82.27
2022-12-28T16:59:44.692Z,82.43
2022-12-28T17:04:01.712Z,82.31
2022-12-28T17:08:15.541Z,82.23
2022-12-28T17:12:28.407Z,82.65
2022-12-28T17:16:40.385Z,81.83
2022-12-28T17:20:52.204Z,82.28
2022-12-28T17:25:04.098Z,82.30
2022-12-28T17:29:15.685Z,82.42
2022-12-28T17:33:32.728Z,83.00
2022-12-28T17:37:47.415Z,83.46
2022-12-28T17:41:58.999Z,83.48
2022-12-28T17:46:41.073Z,83.58
2022-12-28T17:50:53.118Z,83.62
2022-12-28T17:55:05.405Z,83.51
2022-12-28T17:59:16.986Z,83.35
2022-12-28T18:03:33.416Z,83.80
2022-12-28T18:07:45.804Z,83.95
2022-12-28T18:11:57.350Z,84.46
2022-12-28T18:16:13.143Z,84.06
2022-12-28T18:20:24.635Z,83.77
2022-12-28T18:24:36.143Z,84.04
2022-12-28T18:28:48.239Z,83.84
2022-12-28T18:32:59.790Z,83.92
2022-12-28T18:37:11.378Z,83.41
2022-12-28T18:41:22.994Z,83.37
2022-12-28T18:45:34.599Z,83.12
2022-12-28T18:49:48.108Z,83.93
2022-12-28T18:53:59.840Z,84.02
2022-12-28T18:58:11.832Z,83.61
2022-12-28T19:02:23.838Z,83.59
2022-12-28T19:06:36.666Z,83.83
2022-12-28T19:10:49.279Z,83.50
2022-12-28T19:15:01.306Z,83.61
2022-12-28T19:19:13.917Z,83.15
2022-12-28T19:23:26.492Z,83.78
2022-12-28T19:27:38.170Z,83.55
2022-12-28T19:31:50.610Z,83.30
2022-12-28T19:36:02.585Z,83.68
2022-12-28T19:40:14.299Z,84.21
2022-12-28T19:44:25.883Z,84.39
2022-12-28T19:48:37.623Z,84.32
2022-12-28T19:52:50.146Z,83.99
2022-12-28T19:57:01.909Z,84.79
2022-12-28T20:01:22.483Z,84.32
2022-12-28T20:05:37.171Z,84.53
2022-12-28T20:09:53.102Z,84.58
2022-12-28T20:14:05.300Z,85.08
2022-12-28T20:18:17.128Z,87.34
2022-12-28T20:22:28.873Z,88.05
2022-12-28T20:26:41.203Z,90.15
2022-12-28T20:30:53.625Z,90.27
2022-12-28T20:35:05.946Z,91.14
2022-12-28T20:39:18.208Z,91.93
2022-12-28T20:43:30.557Z,91.68
2022-12-28T20:47:42.324Z,92.28
2022-12-28T20:51:55.505Z,93.08
2022-12-28T20:56:09.908Z,94.00
2022-12-28T21:00:22.381Z,95.22
2022-12-28T21:04:34.342Z,96.16
2022-12-28T21:08:46.577Z,96.54
2022-12-28T21:12:58.352Z,98.42
2022-12-28T21:17:10.001Z,99.53
2022-12-28T21:21:22.275Z,98.87
2022-12-28T21:25:33.841Z,98.89
2022-12-28T21:29:45.351Z,99.29
2022-12-28T21:33:56.922Z,99.99
2022-12-28T21:38:08.457Z,100.00
2022-12-28T21:42:19.960Z,100.00
2022-12-28T21:46:31.501Z,100.00
2022-12-28T21:50:43.023Z,100.00
2022-12-28T21:54:54.605Z,99.98
2022-12-28T21:59:06.759Z,100.00
2022-12-28T22:03:36.955Z,100.00
2022-12-28T22:08:09.740Z,100.00
2022-12-28T22:12:37.267Z,100.00
2022-12-28T22:16:49.010Z,100.00
2022-12-28T22:21:00.515Z,100.00
2022-12-28T22:25:12.813Z,100.00
2022-12-28T22:29:25.420Z,99.99
